Current Conditions
Mostly Scattered
Clouds




Pressure
1003.92 (hPa) - 29.65 (inHG)
Visibility

10.0 (km) - 6.2 (miles)
   Temperature
14  °C
57°F
10  °C
Dewpoint
77  %
 Humidity
   Wind Speed
10  km/h
5  kts
6  mph
2.7  m/s
   Wind Direction
 130°
South East
   Airport Data
LTBA
Location Atatürk International 10 km (6.22 mi)
Metar :LTBA 131050Z 13005KT 9999 SCT035 BKN100 14/10 Q1004 NOSIG RMK RWY17L 15006KT RWY05 11004KT 070V160 RWY23 15005KT 110V190
Fri 13th December 13:50 pm
   Raw Metar Info
Raw METAR is the most common format in the world for the transmission of observational weather data. It is highly standardized through the International Civil Aviation Organization (ICAO), which allows it to be understood throughout most of the world.
   API Info
Data Provided by
https://www.checkwx.com/weather/
   © Info
CSS/SVG/PHP scripts were developed by weather34.com for use in the weather34 template © 2015-2019

Guide Info provided by Metar-Wikipedia